Time;durP1;ratioP1;P1;durP2;ratioP2;P2;SDS_P1;SDS_P2;PMS_P1;PMS_P2;Temp;Humidity;BMP_temperature;BMP_pressure;BME280_temperature;BME280_humidity;BME280_pressure;Samples;Min_cycle;Max_cycle;Signal;HPM_P1;HPM_P2
2023/01/24 00:01:14;;;;;;;34.95;16.10;;;3.70;99.90;;;;;;5050745;28;20041;-66
2023/01/24 00:03:40;;;;;;;37.85;16.58;;;3.70;99.90;;;;;;5051496;28;20136;-67
2023/01/24 00:06:05;;;;;;;33.92;16.17;;;3.80;99.90;;;;;;5048290;28;20064;-67
2023/01/24 00:08:31;;;;;;;35.67;16.20;;;3.80;99.90;;;;;;5033835;28;20039;-66
2023/01/24 00:11:02;;;;;;;33.22;16.23;;;3.80;99.90;;;;;;5046929;28;20036;-66
2023/01/24 00:13:28;;;;;;;33.83;16.77;;;3.70;99.90;;;;;;5047791;28;20091;-66
2023/01/24 00:16:15;;;;;;;36.30;16.63;;;3.70;99.90;;;;;;5039734;28;20124;-66
2023/01/24 00:18:41;;;;;;;35.25;16.20;;;3.70;99.90;;;;;;5046434;28;20491;-67
2023/01/24 00:21:11;;;;;;;38.50;16.55;;;3.70;99.90;;;;;;5047598;28;20060;-66
2023/01/24 00:23:37;;;;;;;35.28;16.42;;;3.70;99.90;;;;;;5040183;28;20041;-66
2023/01/24 00:26:03;;;;;;;33.78;16.83;;;3.80;99.90;;;;;;5041645;28;20033;-66
2023/01/24 00:28:29;;;;;;;34.78;17.15;;;3.70;99.90;;;;;;5051182;28;20037;-67
2023/01/24 00:30:55;;;;;;;35.88;16.52;;;3.70;99.90;;;;;;5048748;28;20037;-67
2023/01/24 00:33:21;;;;;;;33.40;16.25;;;3.80;99.90;;;;;;5045501;28;20459;-67
2023/01/24 00:35:46;;;;;;;38.67;17.13;;;3.70;99.90;;;;;;5052230;28;20044;-66
2023/01/24 00:38:12;;;;;;;35.15;17.02;;;3.70;99.90;;;;;;5051051;28;20564;-66
2023/01/24 00:40:37;;;;;;;40.28;17.33;;;3.70;99.90;;;;;;5064256;28;20090;-66
2023/01/24 00:43:03;;;;;;;39.63;17.65;;;3.70;99.90;;;;;;5047451;28;20080;-66
2023/01/24 00:45:28;;;;;;;34.55;15.95;;;3.70;99.90;;;;;;5055180;28;20112;-66
2023/01/24 00:47:54;;;;;;;33.13;16.55;;;3.70;99.90;;;;;;5054956;28;20047;-66
2023/01/24 00:50:20;;;;;;;35.78;17.63;;;3.70;99.90;;;;;;5033296;28;20116;-66
2023/01/24 00:52:46;;;;;;;39.33;16.85;;;3.70;99.90;;;;;;5049053;28;20048;-66
2023/01/24 00:55:11;;;;;;;37.80;16.85;;;3.80;99.90;;;;;;5054988;28;20025;-66
2023/01/24 00:57:37;;;;;;;35.85;16.30;;;3.80;99.90;;;;;;5044618;28;20544;-66
2023/01/24 01:00:03;;;;;;;33.20;16.27;;;3.80;99.90;;;;;;5047128;28;20033;-66
2023/01/24 01:02:29;;;;;;;32.90;15.60;;;3.80;99.90;;;;;;5054485;28;20037;-67
2023/01/24 01:04:54;;;;;;;39.80;16.40;;;3.80;99.90;;;;;;5054822;28;20048;-67
2023/01/24 01:07:21;;;;;;;32.13;16.33;;;3.80;99.90;;;;;;5037748;28;20044;-66
2023/01/24 01:09:47;;;;;;;31.90;14.70;;;3.80;99.90;;;;;;5051140;28;20037;-66
2023/01/24 01:12:12;;;;;;;31.17;15.27;;;3.80;99.90;;;;;;5052935;28;20045;-66
2023/01/24 01:14:38;;;;;;;33.17;15.45;;;3.80;99.90;;;;;;5045994;28;20025;-66
2023/01/24 01:17:04;;;;;;;34.88;15.40;;;3.80;99.90;;;;;;5044492;28;20496;-66
2023/01/24 01:19:29;;;;;;;33.15;15.15;;;3.80;99.90;;;;;;5054445;28;20039;-66
2023/01/24 01:21:55;;;;;;;29.17;14.77;;;3.80;99.90;;;;;;5043818;28;20527;-66
2023/01/24 01:24:20;;;;;;;29.85;14.73;;;3.90;99.90;;;;;;5052834;28;20421;-66
2023/01/24 01:26:46;;;;;;;31.35;15.32;;;3.80;99.90;;;;;;5053268;28;20041;-66
2023/01/24 01:29:12;;;;;;;28.88;13.65;;;3.80;99.90;;;;;;5054477;28;20443;-66
2023/01/24 01:31:37;;;;;;;32.17;15.10;;;3.80;99.90;;;;;;5041678;28;20033;-66
2023/01/24 01:34:03;;;;;;;30.48;14.50;;;3.80;99.90;;;;;;5053716;28;20090;-66
2023/01/24 01:36:28;;;;;;;31.15;15.18;;;3.80;99.90;;;;;;5052642;28;20388;-66
2023/01/24 01:38:54;;;;;;;31.73;14.65;;;3.80;99.90;;;;;;5054568;28;20119;-67
2023/01/24 01:41:20;;;;;;;32.28;14.63;;;3.80;99.90;;;;;;5036051;28;20028;-66
2023/01/24 01:46:42;;;;;;;32.80;14.88;;;3.80;99.90;;;;;;5032286;28;20702;-67
2023/01/24 01:49:18;;;;;;;32.47;14.88;;;3.80;99.90;;;;;;5041047;28;20128;-66
2023/01/24 01:51:46;;;;;;;30.25;13.95;;;3.80;99.90;;;;;;5053857;28;20040;-66
2023/01/24 01:54:27;;;;;;;30.40;15.57;;;3.80;99.90;;;;;;5054081;28;20043;-66
2023/01/24 01:57:00;;;;;;;33.65;15.27;;;3.90;99.90;;;;;;5045557;28;20037;-66
2023/01/24 01:59:34;;;;;;;32.35;14.88;;;3.80;99.90;;;;;;5060477;22;20052;-67
2023/01/24 02:02:01;;;;;;;27.95;13.77;;;3.90;99.90;;;;;;5064487;28;20029;-66
2023/01/24 02:04:32;;;;;;;28.75;13.68;;;3.80;99.90;;;;;;5064493;28;20130;-66
2023/01/24 02:07:06;;;;;;;29.75;14.65;;;3.90;99.90;;;;;;5066659;28;20032;-66
2023/01/24 02:09:37;;;;;;;27.35;13.57;;;3.90;99.90;;;;;;5072117;28;20427;-66
2023/01/24 02:12:09;;;;;;;28.65;12.93;;;3.90;99.90;;;;;;5072818;28;20025;-66
2023/01/24 02:17:21;;;;;;;26.73;12.70;;;3.90;99.90;;;;;;5052559;28;20067;-66
2023/01/24 02:20:08;;;;;;;30.65;13.63;;;3.90;99.90;;;;;;5051398;28;20179;-67
2023/01/24 02:22:50;;;;;;;23.48;12.00;;;3.90;99.90;;;;;;5049701;28;20071;-66
2023/01/24 02:25:18;;;;;;;26.45;13.23;;;3.90;99.90;;;;;;5053381;28;20045;-67
2023/01/24 02:27:44;;;;;;;25.95;12.70;;;3.90;99.90;;;;;;5052199;28;20036;-66
2023/01/24 02:30:10;;;;;;;25.95;13.13;;;3.80;99.90;;;;;;5047360;28;20038;-67
2023/01/24 02:32:36;;;;;;;25.20;13.02;;;3.80;99.90;;;;;;5042339;28;20041;-66
2023/01/24 02:35:03;;;;;;;23.58;12.38;;;3.80;99.90;;;;;;5059968;28;20051;-66
2023/01/24 02:37:28;;;;;;;26.70;12.43;;;3.80;99.90;;;;;;5056658;28;20041;-67
2023/01/24 02:40:00;;;;;;;28.20;13.30;;;3.80;99.90;;;;;;5036453;28;20125;-67
2023/01/24 02:42:29;;;;;;;;;;;3.80;99.90;;;;;;5044656;28;20506;-66
2023/01/24 02:45:16;;;;;;;23.98;11.38;;;3.80;99.90;;;;;;5052246;28;19920;-66
2023/01/24 02:47:46;;;;;;;25.45;11.82;;;3.80;99.90;;;;;;5045418;28;20052;-66
2023/01/24 02:50:12;;;;;;;25.73;12.93;;;3.80;99.90;;;;;;5051601;28;20108;-66
2023/01/24 02:55:22;;;;;;;24.75;12.57;;;3.80;99.90;;;;;;5037937;28;20425;-66
2023/01/24 02:58:06;;;;;;;29.65;12.45;;;3.80;99.90;;;;;;5055122;28;20037;-65
2023/01/24 03:00:38;;;;;;;23.67;12.90;;;3.80;99.90;;;;;;5031692;28;20049;-66
2023/01/24 03:03:04;;;;;;;24.80;12.63;;;3.80;99.90;;;;;;5028802;28;20041;-66
2023/01/24 03:05:39;;;;;;;22.92;11.55;;;3.80;99.90;;;;;;5043194;28;20440;-66
2023/01/24 03:08:08;;;;;;;21.10;11.10;;;3.80;99.90;;;;;;5052008;28;20087;-66
2023/01/24 03:10:34;;;;;;;24.90;11.80;;;3.80;99.90;;;;;;5044545;28;20037;-66
2023/01/24 03:34:54;;;;;;;22.83;10.75;;;3.70;99.90;;;;;;5046055;28;20072;-66
2023/01/24 03:40:12;;;;;;;22.10;10.75;;;3.70;99.90;;;;;;5050178;28;20510;-66
2023/01/24 03:42:46;;;;;;;19.42;9.80;;;3.70;99.90;;;;;;5051338;28;20120;-66
2023/01/24 03:45:24;;;;;;;18.33;9.63;;;3.70;99.90;;;;;;5047620;28;20041;-66
2023/01/24 03:47:55;;;;;;;19.80;10.73;;;3.70;99.90;;;;;;5046609;28;20447;-66
2023/01/24 03:53:14;;;;;;;20.45;10.52;;;3.70;99.90;;;;;;5048046;28;20052;-66
2023/01/24 03:55:40;;;;;;;22.42;10.75;;;3.70;99.90;;;;;;5045635;28;20052;-66
2023/01/24 03:58:07;;;;;;;20.45;10.30;;;3.70;99.90;;;;;;5051009;28;20049;-67
2023/01/24 04:00:34;;;;;;;20.27;9.85;;;3.70;99.90;;;;;;5045272;28;20037;-66
2023/01/24 04:03:00;;;;;;;19.52;10.07;;;3.60;99.90;;;;;;5050412;28;20116;-65
2023/01/24 04:05:26;;;;;;;19.42;10.07;;;3.60;99.90;;;;;;5051629;28;20511;-66
2023/01/24 04:07:54;;;;;;;19.10;9.70;;;3.60;99.90;;;;;;5051106;28;20049;-66
2023/01/24 04:10:20;;;;;;;18.95;9.23;;;3.60;99.90;;;;;;5045578;28;20080;-67
2023/01/24 04:12:46;;;;;;;21.65;10.15;;;3.60;99.90;;;;;;5051558;28;20036;-66
2023/01/24 04:15:20;;;;;;;17.65;9.00;;;3.60;99.90;;;;;;5052864;28;20041;-66
2023/01/24 04:17:46;;;;;;;16.90;9.18;;;3.60;99.90;;;;;;5045987;28;20041;-66
2023/01/24 04:20:13;;;;;;;18.58;8.93;;;3.60;99.90;;;;;;5046679;28;20043;-67
2023/01/24 04:22:39;;;;;;;19.73;9.48;;;3.60;99.90;;;;;;5049663;28;20459;-66
2023/01/24 04:25:05;;;;;;;16.95;9.00;;;3.60;99.90;;;;;;5051563;28;20041;-66
2023/01/24 04:27:31;;;;;;;18.70;9.00;;;3.60;99.90;;;;;;5038761;28;20044;-66
2023/01/24 04:29:56;;;;;;;13.90;8.43;;;3.60;99.90;;;;;;5045971;28;20032;-66
2023/01/24 04:32:22;;;;;;;17.85;9.10;;;3.60;99.90;;;;;;5044491;28;20071;-66
2023/01/24 04:34:48;;;;;;;17.00;9.05;;;3.60;99.90;;;;;;5043168;28;20083;-66
2023/01/24 04:37:13;;;;;;;18.27;9.15;;;3.60;99.90;;;;;;5044414;28;20459;-66
2023/01/24 04:39:39;;;;;;;15.95;8.93;;;3.60;99.90;;;;;;5050863;28;20029;-66
2023/01/24 04:42:05;;;;;;;17.05;9.20;;;3.60;99.90;;;;;;5042000;28;20040;-66
2023/01/24 04:44:32;;;;;;;17.63;9.25;;;3.60;99.90;;;;;;5036977;28;20037;-66
2023/01/24 04:46:58;;;;;;;16.52;8.95;;;3.60;99.90;;;;;;5051126;28;20036;-67
2023/01/24 04:49:24;;;;;;;16.85;9.50;;;3.60;99.90;;;;;;5046929;28;20048;-66
2023/01/24 04:51:50;;;;;;;19.45;9.80;;;3.60;99.90;;;;;;5042239;28;20037;-66
2023/01/24 04:54:16;;;;;;;17.88;9.23;;;3.50;99.90;;;;;;5050701;28;20055;-66
2023/01/24 04:56:42;;;;;;;17.65;8.85;;;3.60;99.90;;;;;;5050393;28;20475;-66
2023/01/24 04:59:11;;;;;;;14.80;8.70;;;3.50;99.90;;;;;;5046708;28;20040;-66
2023/01/24 05:01:37;;;;;;;17.98;9.25;;;3.50;99.90;;;;;;5039959;28;20033;-66
2023/01/24 05:04:03;;;;;;;16.42;9.13;;;3.50;99.90;;;;;;5050084;28;20068;-66
2023/01/24 05:06:30;;;;;;;16.23;9.10;;;3.50;99.90;;;;;;5051087;28;20073;-66
2023/01/24 05:08:56;;;;;;;16.67;9.48;;;3.50;99.90;;;;;;5040212;28;20041;-66
2023/01/24 05:11:23;;;;;;;17.45;9.18;;;3.50;99.90;;;;;;5049002;28;20039;-66
2023/01/24 05:13:49;;;;;;;16.40;9.52;;;3.50;99.90;;;;;;5050066;28;20087;-67
2023/01/24 05:16:15;;;;;;;14.90;8.77;;;3.50;99.90;;;;;;5045188;28;20107;-66
2023/01/24 05:18:41;;;;;;;22.90;9.75;;;3.50;99.90;;;;;;5045530;28;20094;-67
2023/01/24 05:21:10;;;;;;;19.15;9.52;;;3.50;99.90;;;;;;5053955;28;21080;-66
2023/01/24 05:23:35;;;;;;;17.38;9.48;;;3.50;99.90;;;;;;5048598;28;20056;-66
2023/01/24 05:26:01;;;;;;;16.70;9.45;;;3.50;99.90;;;;;;5048823;28;20041;-66
2023/01/24 05:28:27;;;;;;;18.90;9.85;;;3.50;99.90;;;;;;5062175;28;20437;-66
2023/01/24 05:31:01;;;;;;;16.90;9.32;;;3.50;99.90;;;;;;5054357;28;20482;-66
2023/01/24 05:33:27;;;;;;;17.52;9.20;;;3.40;99.90;;;;;;5050378;28;20076;-66
2023/01/24 05:36:04;;;;;;;21.98;10.43;;;3.50;99.90;;;;;;5042958;28;20065;-65
2023/01/24 05:38:29;;;;;;;20.50;10.68;;;3.40;99.90;;;;;;5057712;28;20067;-66
2023/01/24 05:41:00;;;;;;;21.60;11.15;;;3.40;99.90;;;;;;5055460;28;20061;-66
2023/01/24 05:43:26;;;;;;;18.93;9.47;;;3.40;99.90;;;;;;5054484;28;20441;-66
2023/01/24 05:45:59;;;;;;;20.15;10.20;;;3.40;99.90;;;;;;5073888;28;20283;-66
2023/01/24 05:48:25;;;;;;;18.27;10.10;;;3.40;99.90;;;;;;5074278;28;20028;-66
2023/01/24 05:50:56;;;;;;;21.08;10.02;;;3.40;99.90;;;;;;5045409;28;20570;-66
2023/01/24 05:53:22;;;;;;;;;;;3.40;99.90;;;;;;5052391;28;20098;-66
2023/01/24 05:55:58;;;;;;;17.50;9.82;;;3.40;99.90;;;;;;5054057;28;20471;-66
2023/01/24 05:58:24;;;;;;;18.50;10.00;;;3.40;99.90;;;;;;5047058;28;20041;-66
2023/01/24 06:00:50;;;;;;;20.40;9.95;;;3.40;99.90;;;;;;5037783;28;20033;-66
2023/01/24 06:03:16;;;;;;;17.70;9.65;;;3.40;99.90;;;;;;5050831;28;20041;-66
2023/01/24 06:05:49;;;;;;;20.25;10.43;;;3.40;99.90;;;;;;5045051;28;20083;-67
2023/01/24 06:08:16;;;;;;;18.42;10.13;;;3.40;99.90;;;;;;5042854;28;20037;-66
2023/01/24 06:10:42;;;;;;;21.45;10.60;;;3.40;99.90;;;;;;5051569;28;20033;-66
2023/01/24 06:13:08;;;;;;;21.35;11.10;;;3.40;99.90;;;;;;5043271;28;20049;-66
2023/01/24 06:15:34;;;;;;;20.38;11.02;;;3.30;99.90;;;;;;5042786;28;20124;-67
2023/01/24 06:17:59;;;;;;;21.52;11.43;;;3.40;99.90;;;;;;5052908;28;20491;-66
2023/01/24 06:20:25;;;;;;;20.15;11.15;;;3.40;99.90;;;;;;5052460;28;20063;-66
2023/01/24 06:23:03;;;;;;;21.27;10.95;;;3.30;99.90;;;;;;5046977;28;20072;-66
2023/01/24 06:25:29;;;;;;;18.67;10.13;;;3.40;99.90;;;;;;5043977;28;20118;-67
2023/01/24 06:27:55;;;;;;;19.55;9.82;;;3.30;99.90;;;;;;5052713;28;20484;-66
2023/01/24 06:30:21;;;;;;;21.92;10.52;;;3.30;99.90;;;;;;5051111;28;20048;-67
2023/01/24 06:33:19;;;;;;;19.83;11.25;;;3.30;99.90;;;;;;5036578;28;20077;-67
2023/01/24 06:36:23;;;;;;;19.75;10.05;;;3.40;99.90;;;;;;5045016;28;20072;-68
2023/01/24 06:38:49;;;;;;;19.67;10.10;;;3.40;99.90;;;;;;4987628;28;20663;-67
2023/01/24 06:41:19;;;;;;;19.05;10.52;;;3.40;99.90;;;;;;4988224;28;20049;-68
2023/01/24 06:43:46;;;;;;;20.77;11.07;;;3.40;99.90;;;;;;5026614;28;20055;-68
2023/01/24 06:46:13;;;;;;;21.30;11.43;;;3.30;99.90;;;;;;5048729;28;20053;-67
2023/01/24 06:48:41;;;;;;;20.42;11.05;;;3.40;99.90;;;;;;5035557;28;20052;-68
2023/01/24 06:51:12;;;;;;;19.15;10.65;;;3.30;99.90;;;;;;5043573;28;20072;-68
2023/01/24 06:53:37;;;;;;;17.50;10.18;;;3.30;99.90;;;;;;5046836;28;20123;-68
2023/01/24 06:56:03;;;;;;;19.30;11.13;;;3.30;99.90;;;;;;5048383;28;20090;-67
2023/01/24 06:58:28;;;;;;;19.38;10.48;;;3.30;99.90;;;;;;5041169;28;20052;-67
2023/01/24 07:00:54;;;;;;;21.38;11.20;;;3.30;99.90;;;;;;5045869;28;20226;-67
2023/01/24 07:03:20;;;;;;;20.63;10.60;;;3.30;99.90;;;;;;5051677;28;20044;-67
2023/01/24 07:05:47;;;;;;;21.88;11.35;;;3.30;99.90;;;;;;5048008;28;20040;-66
2023/01/24 07:08:13;;;;;;;23.77;10.88;;;3.30;99.90;;;;;;5047992;28;20395;-67
2023/01/24 07:10:41;;;;;;;22.08;10.93;;;3.30;99.90;;;;;;5051239;28;20047;-67
2023/01/24 07:13:07;;;;;;;19.85;11.52;;;3.30;99.90;;;;;;5042808;28;20045;-66
2023/01/24 07:15:33;;;;;;;19.48;10.77;;;3.30;99.90;;;;;;5044649;28;20414;-67
2023/01/24 07:18:10;;;;;;;21.13;11.13;;;3.30;99.90;;;;;;5051165;28;20071;-67
2023/01/24 07:20:36;;;;;;;20.80;10.85;;;3.30;99.90;;;;;;5037601;28;20136;-67
2023/01/24 07:23:02;;;;;;;21.05;10.60;;;3.30;99.90;;;;;;5038690;28;20037;-66
2023/01/24 07:25:28;;;;;;;18.10;10.35;;;3.30;99.90;;;;;;5051922;28;20090;-66
2023/01/24 07:27:54;;;;;;;19.85;10.70;;;3.30;99.90;;;;;;5052002;28;20028;-66
2023/01/24 07:30:20;;;;;;;21.45;10.90;;;3.30;99.90;;;;;;5046735;28;20044;-66
2023/01/24 07:32:46;;;;;;;19.50;10.35;;;3.20;99.90;;;;;;5045031;28;20407;-66
2023/01/24 07:35:11;;;;;;;21.67;11.85;;;3.20;99.90;;;;;;5051996;28;20052;-67
2023/01/24 07:37:37;;;;;;;19.75;10.25;;;3.30;99.90;;;;;;5049385;28;20431;-66
2023/01/24 07:40:03;;;;;;;20.27;11.38;;;3.20;99.90;;;;;;5039291;28;20045;-66
2023/01/24 07:42:29;;;;;;;20.75;11.70;;;3.20;99.90;;;;;;5050181;28;20399;-66
2023/01/24 07:44:56;;;;;;;18.13;10.73;;;3.20;99.90;;;;;;5049846;28;20040;-67
2023/01/24 07:47:23;;;;;;;19.52;10.55;;;3.20;99.90;;;;;;5045842;28;20120;-68
2023/01/24 07:49:48;;;;;;;21.00;10.98;;;3.20;99.90;;;;;;5038315;28;20045;-66
2023/01/24 07:52:14;;;;;;;21.50;11.35;;;3.20;99.90;;;;;;5048785;28;20067;-66
2023/01/24 07:54:39;;;;;;;22.65;11.27;;;3.10;99.90;;;;;;5049264;28;20120;-66
2023/01/24 07:57:05;;;;;;;21.92;11.77;;;3.20;99.90;;;;;;5043742;28;20136;-67
2023/01/24 07:59:31;;;;;;;22.13;11.68;;;3.20;99.90;;;;;;5050903;28;20041;-66
2023/01/24 08:01:56;;;;;;;19.67;11.38;;;3.20;99.90;;;;;;5050663;28;20029;-66
2023/01/24 08:04:22;;;;;;;21.00;11.05;;;3.20;99.90;;;;;;5044482;28;20089;-66
2023/01/24 08:09:31;;;;;;;23.20;12.20;;;3.20;99.90;;;;;;5044023;28;20120;-66
2023/01/24 08:11:57;;;;;;;21.45;11.60;;;3.10;99.90;;;;;;5045503;28;20104;-66
2023/01/24 08:14:22;;;;;;;21.55;11.57;;;3.20;99.90;;;;;;5043112;28;20475;-66
2023/01/24 08:16:49;;;;;;;26.02;13.00;;;3.20;99.90;;;;;;5051579;28;20128;-66
2023/01/24 08:19:15;;;;;;;23.33;11.98;;;3.20;99.90;;;;;;5051418;28;20069;-66
2023/01/24 08:21:40;;;;;;;23.27;11.55;;;3.20;99.90;;;;;;5034112;28;20492;-66
2023/01/24 08:24:06;;;;;;;22.70;12.88;;;3.20;99.90;;;;;;5040585;28;20128;-66
2023/01/24 08:26:32;;;;;;;26.15;12.45;;;3.20;99.90;;;;;;5060032;28;20037;-66
2023/01/24 08:28:57;;;;;;;22.08;12.52;;;3.20;99.90;;;;;;5051880;28;20565;-66
2023/01/24 08:31:23;;;;;;;22.73;12.57;;;3.20;99.90;;;;;;5042498;28;20036;-66
2023/01/24 08:33:49;;;;;;;21.92;11.55;;;3.20;99.90;;;;;;5048406;28;20048;-66
2023/01/24 08:36:14;;;;;;;22.33;12.32;;;3.20;99.90;;;;;;5042202;28;20246;-66
2023/01/24 08:38:40;;;;;;;25.05;12.82;;;3.30;99.90;;;;;;5041376;28;21032;-66
2023/01/24 08:41:07;;;;;;;24.10;12.40;;;3.30;99.90;;;;;;5038872;28;20522;-66
2023/01/24 08:43:32;;;;;;;21.95;12.65;;;3.30;99.90;;;;;;5048103;28;20041;-66
2023/01/24 08:45:58;;;;;;;21.80;11.85;;;3.30;99.90;;;;;;5043444;28;20377;-66
2023/01/24 08:48:24;;;;;;;20.48;11.75;;;3.30;99.90;;;;;;5044566;28;20030;-66
2023/01/24 08:50:49;;;;;;;20.08;11.45;;;3.30;99.90;;;;;;5044644;28;20408;-66
2023/01/24 08:53:15;;;;;;;24.52;13.93;;;3.30;99.90;;;;;;5049462;28;20047;-66
2023/01/24 08:55:41;;;;;;;21.48;11.88;;;3.30;99.90;;;;;;5054621;28;20037;-66
2023/01/24 08:58:06;;;;;;;21.98;11.98;;;3.30;99.90;;;;;;5041975;28;20060;-66
2023/01/24 09:00:32;;;;;;;21.83;12.48;;;3.30;99.90;;;;;;5059774;28;20040;-66
2023/01/24 09:03:00;;;;;;;22.33;12.52;;;3.30;99.90;;;;;;5040200;28;20075;-66
2023/01/24 09:05:27;;;;;;;22.73;12.48;;;3.20;99.90;;;;;;5047286;28;20037;-66
2023/01/24 09:07:52;;;;;;;22.27;12.48;;;3.30;99.90;;;;;;5051804;28;20064;-67
2023/01/24 09:10:18;;;;;;;24.88;12.63;;;3.30;99.90;;;;;;5049499;28;20483;-66
2023/01/24 09:12:43;;;;;;;22.60;11.95;;;3.30;99.90;;;;;;5047328;28;20335;-66
2023/01/24 09:15:10;;;;;;;23.05;11.35;;;3.20;99.90;;;;;;5053536;28;20044;-66
2023/01/24 09:17:37;;;;;;;22.00;11.68;;;3.20;99.90;;;;;;5047465;28;20025;-66
2023/01/24 09:20:03;;;;;;;22.02;12.52;;;3.20;99.90;;;;;;5042578;28;20037;-66
2023/01/24 09:22:28;;;;;;;20.67;11.82;;;3.20;99.90;;;;;;5050178;28;20047;-67
2023/01/24 09:24:54;;;;;;;20.85;10.88;;;3.20;99.90;;;;;;5058505;28;20041;-66
2023/01/24 09:27:20;;;;;;;20.05;10.55;;;3.20;99.90;;;;;;5042962;28;20471;-66
2023/01/24 09:29:45;;;;;;;19.77;11.40;;;3.20;99.90;;;;;;5042186;28;20032;-65
2023/01/24 09:32:12;;;;;;;18.90;11.23;;;3.20;99.90;;;;;;5040429;28;20098;-67
2023/01/24 09:34:40;;;;;;;20.40;11.90;;;3.20;99.90;;;;;;5040497;28;20041;-67
2023/01/24 09:37:06;;;;;;;20.95;11.25;;;3.30;99.90;;;;;;5038612;28;20091;-66
2023/01/24 09:39:31;;;;;;;21.10;11.43;;;3.30;99.90;;;;;;5053746;28;20445;-66
2023/01/24 09:42:03;;;;;;;20.83;11.02;;;3.30;99.90;;;;;;5053280;28;20443;-66
2023/01/24 09:44:39;;;;;;;19.15;11.32;;;3.30;99.90;;;;;;5049177;28;21167;-66
2023/01/24 09:47:22;;;;;;;19.58;11.57;;;3.30;99.90;;;;;;5043092;28;20049;-66
2023/01/24 09:49:58;;;;;;;23.10;11.95;;;3.30;99.90;;;;;;5053680;28;20033;-66
2023/01/24 09:52:39;;;;;;;20.90;11.23;;;3.30;99.90;;;;;;5048667;28;20494;-66
2023/01/24 09:55:28;;;;;;;21.90;11.45;;;3.30;99.90;;;;;;5045261;28;20037;-66
2023/01/24 09:58:16;;;;;;;21.50;11.80;;;3.30;99.90;;;;;;5053973;28;20040;-66
2023/01/24 10:00:42;;;;;;;21.30;11.38;;;3.30;99.90;;;;;;5051898;28;20071;-66
2023/01/24 10:03:20;;;;;;;20.98;11.98;;;3.30;99.90;;;;;;5033958;28;20038;-67
2023/01/24 10:05:58;;;;;;;19.83;11.30;;;3.30;99.90;;;;;;5046664;28;20037;-66
2023/01/24 10:08:39;;;;;;;19.42;11.35;;;3.30;99.90;;;;;;5048705;28;20052;-67
2023/01/24 10:11:26;;;;;;;21.20;11.20;;;3.30;99.90;;;;;;5039387;28;20124;-66
2023/01/24 10:14:05;;;;;;;19.63;10.82;;;3.30;99.90;;;;;;5042122;28;20487;-67
2023/01/24 10:16:42;;;;;;;19.88;11.32;;;3.30;99.90;;;;;;5046116;28;20036;-66
2023/01/24 10:19:17;;;;;;;20.77;11.30;;;3.20;99.90;;;;;;5053734;28;20041;-66
2023/01/24 10:21:45;;;;;;;19.92;11.50;;;3.20;99.90;;;;;;5052017;28;20044;-66
2023/01/24 10:24:20;;;;;;;19.58;11.35;;;3.20;99.90;;;;;;5048795;28;20542;-66
2023/01/24 10:26:51;;;;;;;23.23;11.88;;;3.20;99.90;;;;;;5046828;28;20373;-66
2023/01/24 10:29:24;;;;;;;19.35;11.65;;;3.20;99.90;;;;;;5052777;28;20063;-66
2023/01/24 10:32:11;;;;;;;19.00;11.18;;;3.20;99.90;;;;;;5046274;28;20483;-66
2023/01/24 10:34:42;;;;;;;20.20;11.30;;;3.20;99.90;;;;;;5049891;28;20055;-66
2023/01/24 10:37:20;;;;;;;21.65;11.23;;;3.20;99.90;;;;;;5073447;28;20119;-66
2023/01/24 10:39:46;;;;;;;18.58;11.45;;;3.30;99.90;;;;;;5055519;28;20439;-66
2023/01/24 10:42:28;;;;;;;18.95;11.35;;;3.40;99.90;;;;;;5042900;28;20487;-66
2023/01/24 10:44:58;;;;;;;21.52;11.32;;;3.30;99.90;;;;;;5040530;28;20037;-66
2023/01/24 10:47:46;;;;;;;22.45;12.15;;;3.40;99.90;;;;;;5051984;28;20060;-66
2023/01/24 10:50:15;;;;;;;20.70;11.32;;;3.40;99.90;;;;;;5052848;28;20033;-65
2023/01/24 10:52:41;;;;;;;21.65;11.98;;;3.40;99.90;;;;;;5052123;28;20115;-66
2023/01/24 10:55:31;;;;;;;19.98;11.82;;;3.40;99.90;;;;;;5047029;28;20243;-66
2023/01/24 10:57:57;;;;;;;18.30;10.95;;;3.40;99.90;;;;;;5056764;28;20033;-66
2023/01/24 11:00:43;;;;;;;22.80;12.27;;;3.40;99.90;;;;;;5052594;28;20519;-67
2023/01/24 11:03:19;;;;;;;18.25;10.82;;;3.50;99.90;;;;;;5040161;28;20052;-66
2023/01/24 11:05:49;;;;;;;19.33;11.45;;;3.40;99.90;;;;;;5038852;28;20163;-66
2023/01/24 11:08:21;;;;;;;18.33;11.45;;;3.50;99.90;;;;;;5060613;28;20037;-66
2023/01/24 11:10:51;;;;;;;20.83;11.90;;;3.50;99.90;;;;;;5052417;28;20036;-66
2023/01/24 11:13:32;;;;;;;19.38;10.88;;;3.40;99.90;;;;;;5043836;28;20056;-66
2023/01/24 11:16:14;;;;;;;18.75;10.73;;;3.40;99.90;;;;;;5056238;28;20045;-66
2023/01/24 11:18:47;;;;;;;20.15;11.20;;;3.40;99.90;;;;;;5035495;28;20076;-66
2023/01/24 11:21:15;;;;;;;18.92;10.43;;;3.50;99.90;;;;;;5049457;28;20094;-66
2023/01/24 11:23:42;;;;;;;17.98;10.35;;;3.50;99.90;;;;;;5051029;28;20047;-66
2023/01/24 11:26:54;;;;;;;19.98;10.90;;;3.50;99.90;;;;;;5051919;28;20107;-66
2023/01/24 11:29:21;;;;;;;21.10;10.95;;;3.50;99.90;;;;;;5039772;28;20179;-67
2023/01/24 11:31:51;;;;;;;18.02;10.73;;;3.50;99.90;;;;;;5050360;28;20052;-66
2023/01/24 11:34:42;;;;;;;18.50;10.93;;;3.50;99.90;;;;;;5048309;28;20049;-67
2023/01/24 11:37:35;;;;;;;17.25;10.05;;;3.60;99.90;;;;;;5034289;28;20407;-66
2023/01/24 11:40:24;;;;;;;16.55;9.68;;;3.60;99.90;;;;;;5050145;28;20037;-66
2023/01/24 11:43:14;;;;;;;17.33;10.35;;;3.60;99.90;;;;;;5030176;28;20041;-66
2023/01/24 11:46:01;;;;;;;18.58;9.88;;;3.50;99.90;;;;;;5029900;28;20052;-66
2023/01/24 11:48:50;;;;;;;19.08;10.25;;;3.60;99.90;;;;;;5043477;28;20656;-66
2023/01/24 11:51:53;;;;;;;20.70;10.65;;;3.50;99.90;;;;;;5041500;28;20049;-66
2023/01/24 11:54:43;;;;;;;18.02;11.32;;;3.50;99.90;;;;;;5048945;28;20049;-68
2023/01/24 11:57:20;;;;;;;18.08;10.55;;;3.50;99.90;;;;;;5052045;28;20495;-66
2023/01/24 12:00:21;;;;;;;18.20;10.48;;;3.50;99.90;;;;;;5039122;28;20491;-66
2023/01/24 12:03:14;;;;;;;21.05;10.43;;;3.50;99.90;;;;;;4988263;28;20517;-66
2023/01/24 12:05:59;;;;;;;20.60;11.15;;;3.60;99.90;;;;;;5050574;28;20067;-66
2023/01/24 12:08:43;;;;;;;19.90;11.07;;;3.60;99.90;;;;;;5043032;28;20372;-66
2023/01/24 12:11:17;;;;;;;17.05;10.65;;;3.60;99.90;;;;;;5044164;28;20607;-66
2023/01/24 12:14:13;;;;;;;18.90;11.27;;;3.60;99.90;;;;;;5051253;28;20041;-66
2023/01/24 12:16:52;;;;;;;19.50;10.88;;;3.60;99.90;;;;;;5049166;28;20037;-66
2023/01/24 12:19:36;;;;;;;18.30;11.02;;;3.60;99.90;;;;;;5039589;28;20041;-66
2023/01/24 12:22:19;;;;;;;17.67;10.40;;;3.60;99.90;;;;;;5051401;28;20407;-66
2023/01/24 12:25:13;;;;;;;19.55;11.20;;;3.60;99.90;;;;;;5047220;28;20029;-66
2023/01/24 12:27:42;;;;;;;20.67;10.40;;;3.60;99.90;;;;;;5042735;28;20041;-66
2023/01/24 12:30:23;;;;;;;18.38;10.60;;;3.70;99.90;;;;;;5050709;28;20546;-66
2023/01/24 12:33:12;;;;;;;;;;;3.70;99.90;;;;;;5051390;28;20076;-66
2023/01/24 12:35:47;;;;;;;17.00;10.10;;;3.70;99.90;;;;;;5014205;28;19916;-67
2023/01/24 12:38:20;;;;;;;19.08;10.65;;;3.60;99.90;;;;;;5050737;28;20029;-66
2023/01/24 12:40:46;;;;;;;16.65;10.43;;;3.70;99.90;;;;;;5068451;28;20105;-68
2023/01/24 12:43:30;;;;;;;19.85;11.07;;;3.70;99.90;;;;;;5039261;28;20496;-66
2023/01/24 12:46:06;;;;;;;17.98;10.60;;;3.70;99.90;;;;;;5051099;28;20127;-66
2023/01/24 12:48:50;;;;;;;18.73;10.93;;;3.70;99.90;;;;;;5050017;28;20037;-66
2023/01/24 12:51:32;;;;;;;17.95;10.77;;;3.60;99.90;;;;;;5039819;28;20037;-66
2023/01/24 12:54:08;;;;;;;19.13;10.85;;;3.60;99.90;;;;;;5043259;28;20434;-66
2023/01/24 12:56:59;;;;;;;19.50;11.32;;;3.60;99.90;;;;;;5043745;28;20506;-66
2023/01/24 12:59:28;;;;;;;17.00;10.27;;;3.60;99.90;;;;;;5038873;28;20041;-66
2023/01/24 13:02:20;;;;;;;18.48;11.18;;;3.50;99.90;;;;;;5046211;28;20047;-66
2023/01/24 13:04:57;;;;;;;19.75;10.93;;;3.50;99.90;;;;;;5030890;28;20488;-66
2023/01/24 13:07:38;;;;;;;18.85;10.77;;;3.60;99.90;;;;;;5031383;28;20037;-66
2023/01/24 13:10:17;;;;;;;20.30;11.17;;;3.60;99.90;;;;;;5047659;28;20087;-66
2023/01/24 13:12:43;;;;;;;19.02;10.85;;;3.60;99.90;;;;;;5050683;28;20852;-66
2023/01/24 13:15:48;;;;;;;17.55;10.68;;;3.50;99.90;;;;;;5043917;28;20495;-66
2023/01/24 13:18:31;;;;;;;18.92;11.13;;;3.60;99.90;;;;;;5028008;28;20135;-66
2023/01/24 13:20:59;;;;;;;18.40;11.20;;;3.60;99.90;;;;;;5043782;28;20371;-67
2023/01/24 13:23:30;;;;;;;20.10;10.50;;;3.60;99.90;;;;;;5049275;28;20041;-66
2023/01/24 13:26:15;;;;;;;20.60;11.50;;;3.60;99.90;;;;;;5049624;28;20068;-67
2023/01/24 13:29:12;;;;;;;21.90;11.88;;;3.50;99.90;;;;;;5030623;28;20124;-66
2023/01/24 13:32:14;;;;;;;20.65;10.65;;;3.50;99.90;;;;;;5036915;28;21067;-66
2023/01/24 13:34:52;;;;;;;20.42;11.00;;;3.50;99.90;;;;;;5033070;28;20037;-66
2023/01/24 13:37:26;;;;;;;19.02;10.77;;;3.60;99.90;;;;;;5048457;28;20048;-67